Time;durP1;ratioP1;P1;durP2;ratioP2;P2;SDS_P1;SDS_P2;PMS_P1;PMS_P2;Temp;Humidity;BMP_temperature;BMP_pressure;BME280_temperature;BME280_humidity;BME280_pressure;Samples;Min_cycle;Max_cycle;Signal;HPM_P1;HPM_P2
2021/05/24 00:00:14;;;;;;;1.83;0.87;;;;;;;;;;4938925;29;20038;-77
2021/05/24 00:02:39;;;;;;;2.20;1.00;;;;;;;;;;4941754;29;20110;-78
2021/05/24 00:05:06;;;;;;;2.07;1.03;;;;;;;;;;4926011;29;20110;-78
2021/05/24 00:07:31;;;;;;;1.98;0.95;;;;;;;;;;4941732;29;20023;-78
2021/05/24 00:09:57;;;;;;;1.73;1.00;;;;;;;;;;4942283;29;20089;-78
2021/05/24 00:12:26;;;;;;;2.00;1.07;;;;;;;;;;4933523;29;20717;-78
2021/05/24 00:14:52;;;;;;;2.10;0.90;;;;;;;;;;4941761;29;20075;-77
2021/05/24 00:17:18;;;;;;;1.80;0.90;;;;;;;;;;4937832;29;20050;-78
2021/05/24 00:19:44;;;;;;;1.87;0.87;;;;;;;;;;4922879;29;20475;-77
2021/05/24 00:22:10;;;;;;;2.55;0.98;;;;;;;;;;4931356;29;20031;-77
2021/05/24 00:24:35;;;;;;;1.80;0.97;;;;;;;;;;4925344;29;20534;-78
2021/05/24 00:27:00;;;;;;;2.80;1.00;;;;;;;;;;4925020;29;20069;-78
2021/05/24 00:29:27;;;;;;;2.20;1.00;;;;;;;;;;4941059;29;20118;-77
2021/05/24 00:31:52;;;;;;;2.22;1.00;;;;;;;;;;4941586;29;20129;-78
2021/05/24 00:34:17;;;;;;;1.80;0.80;;;;;;;;;;4925309;29;20067;-77
2021/05/24 00:36:43;;;;;;;2.33;1.10;;;;;;;;;;4922473;29;20177;-77
2021/05/24 00:39:08;;;;;;;2.17;0.90;;;;;;;;;;4936963;29;20023;-78
2021/05/24 00:41:40;;;;;;;1.43;0.80;;;;;;;;;;4923387;29;20038;-77
2021/05/24 00:44:06;;;;;;;1.98;0.90;;;;;;;;;;4922290;29;20494;-77
2021/05/24 00:46:32;;;;;;;1.77;0.97;;;;;;;;;;4921732;29;20027;-77
2021/05/24 00:48:57;;;;;;;2.08;1.00;;;;;;;;;;4936826;29;20174;-77
2021/05/24 00:51:23;;;;;;;1.50;0.70;;;;;;;;;;4921415;29;20114;-78
2021/05/24 00:53:48;;;;;;;2.00;0.90;;;;;;;;;;4949561;29;20035;-77
2021/05/24 00:56:14;;;;;;;2.00;0.90;;;;;;;;;;4956118;29;20050;-77
2021/05/24 00:58:39;;;;;;;1.43;0.73;;;;;;;;;;4924174;29;20078;-77
2021/05/24 01:01:04;;;;;;;3.27;1.07;;;;;;;;;;4956794;29;20471;-78
2021/05/24 01:03:30;;;;;;;1.63;0.60;;;;;;;;;;4905334;29;20047;-78
2021/05/24 01:05:55;;;;;;;1.97;0.77;;;;;;;;;;4934822;29;20106;-78
2021/05/24 01:08:20;;;;;;;1.93;0.83;;;;;;;;;;4940079;29;20119;-78
2021/05/24 01:10:46;;;;;;;1.30;0.83;;;;;;;;;;4939590;29;20062;-78
2021/05/24 01:13:13;;;;;;;1.67;0.70;;;;;;;;;;4939729;29;20015;-77
2021/05/24 01:15:38;;;;;;;1.45;0.70;;;;;;;;;;4921813;29;20031;-78
2021/05/24 01:18:04;;;;;;;1.30;0.77;;;;;;;;;;4922611;29;20574;-78
2021/05/24 01:20:29;;;;;;;2.10;0.70;;;;;;;;;;4937609;29;20394;-78
2021/05/24 01:23:18;;;;;;;1.47;0.90;;;;;;;;;;4943463;29;20047;-78
2021/05/24 01:25:45;;;;;;;1.85;0.70;;;;;;;;;;4942097;29;20047;-77
2021/05/24 01:28:12;;;;;;;1.50;0.70;;;;;;;;;;4905401;29;20074;-77
2021/05/24 01:30:37;;;;;;;1.85;0.80;;;;;;;;;;4943446;29;20163;-77
2021/05/24 01:33:04;;;;;;;3.70;0.80;;;;;;;;;;4937852;29;20067;-77
2021/05/24 01:35:29;;;;;;;2.22;0.88;;;;;;;;;;4908891;29;20023;-78
2021/05/24 01:37:54;;;;;;;1.73;0.90;;;;;;;;;;4940188;29;20122;-78
2021/05/24 01:40:20;;;;;;;2.20;0.97;;;;;;;;;;4957443;28;20105;-77
2021/05/24 01:42:45;;;;;;;2.05;0.98;;;;;;;;;;4923523;29;20023;-77
2021/05/24 01:45:11;;;;;;;1.43;0.80;;;;;;;;;;4923802;29;20087;-77
2021/05/24 01:47:37;;;;;;;1.93;0.90;;;;;;;;;;4939039;29;20494;-77
2021/05/24 01:50:03;;;;;;;1.23;0.63;;;;;;;;;;4962232;28;20784;-78
2021/05/24 01:52:28;;;;;;;3.42;0.75;;;;;;;;;;4945417;29;20035;-77
2021/05/24 01:54:54;;;;;;;1.50;0.80;;;;;;;;;;4946761;29;20059;-77
2021/05/24 01:57:19;;;;;;;2.67;1.00;;;;;;;;;;4930790;29;20486;-77
2021/05/24 01:59:44;;;;;;;1.83;0.70;;;;;;;;;;4946727;29;20495;-78
2021/05/24 02:02:10;;;;;;;1.10;0.77;;;;;;;;;;4926876;29;20063;-78
2021/05/24 02:04:35;;;;;;;2.17;0.97;;;;;;;;;;4943175;29;20037;-77
2021/05/24 02:07:01;;;;;;;1.87;0.70;;;;;;;;;;4963144;29;20529;-78
2021/05/24 02:09:26;;;;;;;1.47;0.80;;;;;;;;;;4945876;29;20031;-78
2021/05/24 02:11:52;;;;;;;1.73;0.80;;;;;;;;;;4927195;29;20479;-77
2021/05/24 02:14:17;;;;;;;1.70;0.82;;;;;;;;;;4938811;29;20043;-77
2021/05/24 02:16:44;;;;;;;1.63;1.03;;;;;;;;;;4955435;29;20070;-78
2021/05/24 02:19:11;;;;;;;1.30;0.73;;;;;;;;;;4927646;29;20034;-78
2021/05/24 02:21:40;;;;;;;1.10;0.65;;;;;;;;;;4948855;28;20054;-78
2021/05/24 02:24:06;;;;;;;2.00;0.90;;;;;;;;;;4932337;29;20031;-78
2021/05/24 02:26:32;;;;;;;;;;;;;;;;;;4942730;29;20050;-78
2021/05/24 02:28:57;;;;;;;1.55;0.80;;;;;;;;;;4962661;28;19914;-78
2021/05/24 02:31:23;;;;;;;1.40;0.70;;;;;;;;;;4946456;29;20027;-78
2021/05/24 02:33:48;;;;;;;1.67;0.70;;;;;;;;;;4938883;29;20058;-78
2021/05/24 02:36:13;;;;;;;1.60;0.70;;;;;;;;;;4963392;29;20023;-78
2021/05/24 02:38:39;;;;;;;2.67;0.93;;;;;;;;;;4930646;29;20078;-78
2021/05/24 02:41:04;;;;;;;2.00;0.80;;;;;;;;;;4930576;29;20465;-78
2021/05/24 02:43:29;;;;;;;1.80;0.80;;;;;;;;;;4946073;29;20505;-77
2021/05/24 02:45:55;;;;;;;1.40;0.83;;;;;;;;;;4930638;29;20427;-78
2021/05/24 02:48:20;;;;;;;1.43;0.70;;;;;;;;;;4927246;29;20047;-78
2021/05/24 02:50:46;;;;;;;1.43;0.80;;;;;;;;;;4927538;29;20039;-78
2021/05/24 02:53:11;;;;;;;1.60;0.80;;;;;;;;;;4927619;29;20051;-78
2021/05/24 02:55:37;;;;;;;1.93;0.80;;;;;;;;;;4953918;29;20016;-77
2021/05/24 02:58:03;;;;;;;1.63;0.70;;;;;;;;;;4930797;29;20034;-77
2021/05/24 03:00:28;;;;;;;1.40;0.70;;;;;;;;;;4943258;29;20063;-78
2021/05/24 03:02:54;;;;;;;1.53;0.70;;;;;;;;;;4911468;29;20110;-78
2021/05/24 03:05:21;;;;;;;1.27;0.75;;;;;;;;;;4942733;29;20031;-78
2021/05/24 03:07:46;;;;;;;1.52;0.70;;;;;;;;;;4911616;29;20031;-78
2021/05/24 03:10:13;;;;;;;1.10;0.70;;;;;;;;;;4926842;29;20043;-77
2021/05/24 03:12:38;;;;;;;1.30;0.55;;;;;;;;;;4926671;29;20058;-77
2021/05/24 03:15:04;;;;;;;0.90;0.60;;;;;;;;;;4942772;29;20066;-77
2021/05/24 03:17:30;;;;;;;1.40;0.70;;;;;;;;;;4939384;29;20501;-78
2021/05/24 03:19:55;;;;;;;1.23;0.63;;;;;;;;;;4926812;29;20442;-77
2021/05/24 03:22:20;;;;;;;1.43;0.80;;;;;;;;;;4942032;29;20490;-77
2021/05/24 03:24:46;;;;;;;1.67;0.70;;;;;;;;;;4927116;29;20488;-77
2021/05/24 03:27:11;;;;;;;1.60;0.70;;;;;;;;;;4942469;29;20027;-77
2021/05/24 03:29:36;;;;;;;2.57;0.70;;;;;;;;;;4938766;29;20059;-78
2021/05/24 03:32:02;;;;;;;1.23;0.70;;;;;;;;;;4929826;29;20058;-77
2021/05/24 03:34:27;;;;;;;1.53;0.60;;;;;;;;;;4925863;29;20110;-77
2021/05/24 03:36:52;;;;;;;1.10;0.53;;;;;;;;;;4942056;29;20058;-77
2021/05/24 03:39:19;;;;;;;1.70;0.80;;;;;;;;;;4910052;29;20059;-77
2021/05/24 03:41:44;;;;;;;1.20;0.60;;;;;;;;;;4941379;29;20027;-77
2021/05/24 03:44:09;;;;;;;1.67;0.73;;;;;;;;;;4922719;29;20159;-77
2021/05/24 03:46:35;;;;;;;1.20;0.70;;;;;;;;;;4925359;29;20102;-77
2021/05/24 03:49:02;;;;;;;1.17;0.63;;;;;;;;;;4932220;29;20513;-77
2021/05/24 03:51:27;;;;;;;1.40;0.63;;;;;;;;;;4926922;29;20546;-78
2021/05/24 03:53:53;;;;;;;1.13;0.60;;;;;;;;;;4942016;29;20058;-77
2021/05/24 03:56:18;;;;;;;1.58;0.63;;;;;;;;;;4923226;29;20027;-78
2021/05/24 03:58:44;;;;;;;0.70;0.50;;;;;;;;;;4938970;29;20039;-78
2021/05/24 04:01:09;;;;;;;1.30;0.57;;;;;;;;;;4938907;29;20026;-78
2021/05/24 04:03:35;;;;;;;1.17;0.60;;;;;;;;;;4925286;29;20119;-78
2021/05/24 04:06:02;;;;;;;1.35;0.60;;;;;;;;;;4941218;29;20471;-77
2021/05/24 04:08:35;;;;;;;1.48;0.60;;;;;;;;;;4941554;29;20414;-77
2021/05/24 04:11:02;;;;;;;1.70;0.60;;;;;;;;;;4927113;28;20703;-78
2021/05/24 04:13:27;;;;;;;1.00;0.60;;;;;;;;;;4922684;29;20027;-78
2021/05/24 04:15:55;;;;;;;1.00;0.50;;;;;;;;;;4921718;29;20057;-77
2021/05/24 04:18:21;;;;;;;1.17;0.73;;;;;;;;;;4934658;29;20035;-77
2021/05/24 04:20:47;;;;;;;1.75;0.60;;;;;;;;;;4924004;29;20023;-78
2021/05/24 04:23:16;;;;;;;1.43;0.60;;;;;;;;;;4925788;29;20118;-78
2021/05/24 04:25:41;;;;;;;1.08;0.50;;;;;;;;;;4940867;29;20501;-77
2021/05/24 04:28:06;;;;;;;1.13;0.63;;;;;;;;;;4925124;29;20027;-77
2021/05/24 04:30:32;;;;;;;1.20;0.50;;;;;;;;;;4940512;29;20075;-77
2021/05/24 04:32:57;;;;;;;1.27;0.70;;;;;;;;;;4924882;29;20074;-77
2021/05/24 04:35:22;;;;;;;1.00;0.70;;;;;;;;;;4941451;29;20054;-77
2021/05/24 04:37:48;;;;;;;0.97;0.50;;;;;;;;;;4924930;29;20041;-77
2021/05/24 04:40:13;;;;;;;1.50;0.60;;;;;;;;;;4925063;29;20482;-77
2021/05/24 04:42:39;;;;;;;1.10;0.53;;;;;;;;;;4920832;29;20471;-77
2021/05/24 04:45:04;;;;;;;1.43;0.60;;;;;;;;;;4929518;29;20042;-77
2021/05/24 04:47:30;;;;;;;1.35;0.55;;;;;;;;;;4937600;29;20090;-77
2021/05/24 04:49:55;;;;;;;1.27;0.57;;;;;;;;;;4922015;29;20052;-77
2021/05/24 04:52:21;;;;;;;1.03;0.57;;;;;;;;;;4921020;29;20110;-78
2021/05/24 04:54:46;;;;;;;0.83;0.60;;;;;;;;;;4930967;29;20101;-78
2021/05/24 04:57:12;;;;;;;1.60;0.70;;;;;;;;;;4924487;29;20027;-78
2021/05/24 04:59:37;;;;;;;1.87;0.50;;;;;;;;;;4924284;29;20019;-77
2021/05/24 05:02:03;;;;;;;0.90;0.53;;;;;;;;;;4939543;29;20031;-77
2021/05/24 05:04:28;;;;;;;1.40;0.60;;;;;;;;;;4940010;29;20118;-77
2021/05/24 05:06:55;;;;;;;1.27;0.60;;;;;;;;;;4924606;29;20054;-77
2021/05/24 05:11:48;;;;;;;0.95;0.50;;;;;;;;;;4991020;28;20100;-76
2021/05/24 05:14:14;;;;;;;1.60;0.40;;;;;;;;;;4976369;28;20065;-77
2021/05/24 05:16:39;;;;;;;1.00;0.50;;;;;;;;;;4940520;28;20397;-76
2021/05/24 05:19:04;;;;;;;2.10;0.70;;;;;;;;;;4973490;28;20513;-76
2021/05/24 05:21:30;;;;;;;1.03;0.57;;;;;;;;;;4941390;28;20505;-76
2021/05/24 05:23:55;;;;;;;0.83;0.40;;;;;;;;;;4988348;28;20430;-76
2021/05/24 05:26:20;;;;;;;1.00;0.50;;;;;;;;;;4970822;28;20166;-76
2021/05/24 05:28:46;;;;;;;0.60;0.30;;;;;;;;;;4976463;28;20081;-77
2021/05/24 05:31:11;;;;;;;1.67;0.63;;;;;;;;;;4976731;28;20105;-76
2021/05/24 05:33:37;;;;;;;1.03;0.60;;;;;;;;;;4956605;28;20479;-77
2021/05/24 05:36:02;;;;;;;0.67;0.43;;;;;;;;;;4956948;28;20062;-77
2021/05/24 05:38:29;;;;;;;0.87;0.50;;;;;;;;;;4963012;28;20109;-77
2021/05/24 05:40:55;;;;;;;1.10;0.50;;;;;;;;;;4956084;28;20038;-76
2021/05/24 05:43:20;;;;;;;0.90;0.50;;;;;;;;;;4992706;28;20018;-76
2021/05/24 05:45:46;;;;;;;1.43;0.60;;;;;;;;;;4959992;28;20113;-76
2021/05/24 05:48:11;;;;;;;1.38;0.70;;;;;;;;;;4972237;28;20057;-76
2021/05/24 05:50:37;;;;;;;0.70;0.50;;;;;;;;;;4993607;28;20536;-76
2021/05/24 05:53:02;;;;;;;1.00;0.50;;;;;;;;;;4975353;28;20129;-77
2021/05/24 05:55:28;;;;;;;0.87;0.50;;;;;;;;;;4957114;28;20019;-76
2021/05/24 05:57:53;;;;;;;0.63;0.40;;;;;;;;;;4943099;28;20109;-76
2021/05/24 06:00:19;;;;;;;0.73;0.50;;;;;;;;;;4976195;28;20110;-77
2021/05/24 06:02:44;;;;;;;0.97;0.60;;;;;;;;;;4954482;28;20082;-77
2021/05/24 06:05:11;;;;;;;0.70;0.50;;;;;;;;;;4974117;28;20061;-77
2021/05/24 06:07:36;;;;;;;0.95;0.50;;;;;;;;;;4957000;28;20162;-76
2021/05/24 06:10:02;;;;;;;0.83;0.50;;;;;;;;;;4956761;28;20506;-77
2021/05/24 06:12:27;;;;;;;0.70;0.40;;;;;;;;;;4956934;28;20037;-77
2021/05/24 06:14:52;;;;;;;1.10;0.60;;;;;;;;;;4941122;28;20058;-77
2021/05/24 06:17:18;;;;;;;1.00;0.40;;;;;;;;;;4956886;28;20446;-77
2021/05/24 06:19:43;;;;;;;1.00;0.60;;;;;;;;;;4973997;28;20050;-77
2021/05/24 06:22:08;;;;;;;1.30;0.50;;;;;;;;;;4940836;28;20186;-77
2021/05/24 06:24:34;;;;;;;1.17;0.50;;;;;;;;;;4950954;28;20117;-76
2021/05/24 06:26:59;;;;;;;0.83;0.40;;;;;;;;;;4956866;28;20490;-77
2021/05/24 06:29:25;;;;;;;1.27;0.60;;;;;;;;;;4957901;28;20502;-76
2021/05/24 06:31:55;;;;;;;0.82;0.50;;;;;;;;;;4964039;28;20041;-77
2021/05/24 06:34:20;;;;;;;0.90;0.40;;;;;;;;;;4976630;28;20378;-77
2021/05/24 06:36:45;;;;;;;1.27;0.40;;;;;;;;;;4949281;28;20033;-77
2021/05/24 06:39:11;;;;;;;1.27;0.50;;;;;;;;;;4960249;28;20055;-77
2021/05/24 06:41:37;;;;;;;0.80;0.40;;;;;;;;;;4928722;28;20026;-77
2021/05/24 06:44:02;;;;;;;1.40;0.40;;;;;;;;;;4960047;28;20637;-76
2021/05/24 06:46:27;;;;;;;1.10;0.53;;;;;;;;;;4943443;28;20464;-77
2021/05/24 06:48:53;;;;;;;1.00;0.43;;;;;;;;;;4960381;28;20118;-76
2021/05/24 06:51:18;;;;;;;1.50;0.57;;;;;;;;;;4978968;28;20062;-77
2021/05/24 06:53:44;;;;;;;0.73;0.40;;;;;;;;;;4963182;28;20018;-77
2021/05/24 06:56:09;;;;;;;0.77;0.40;;;;;;;;;;4977572;28;20022;-77
2021/05/24 06:58:35;;;;;;;0.80;0.50;;;;;;;;;;4963765;28;20065;-77
2021/05/24 07:01:00;;;;;;;0.93;0.50;;;;;;;;;;4977122;28;20058;-77
2021/05/24 07:03:25;;;;;;;1.00;0.40;;;;;;;;;;4960009;28;20031;-76
2021/05/24 07:05:50;;;;;;;1.47;0.60;;;;;;;;;;4963899;28;20097;-77
2021/05/24 07:08:16;;;;;;;0.70;0.40;;;;;;;;;;4988509;28;20563;-77
2021/05/24 07:10:41;;;;;;;0.73;0.40;;;;;;;;;;4978975;28;20425;-77
2021/05/24 07:13:06;;;;;;;1.20;0.50;;;;;;;;;;4979079;28;20574;-77
2021/05/24 07:15:32;;;;;;;0.93;0.40;;;;;;;;;;4962809;28;20042;-77
2021/05/24 07:17:57;;;;;;;0.87;0.57;;;;;;;;;;4995591;28;20027;-77
2021/05/24 07:20:23;;;;;;;0.90;0.40;;;;;;;;;;4957477;28;20089;-76
2021/05/24 07:22:48;;;;;;;0.67;0.40;;;;;;;;;;4947092;28;20482;-77
2021/05/24 07:25:13;;;;;;;1.10;0.40;;;;;;;;;;4976751;28;20367;-77
2021/05/24 07:27:39;;;;;;;1.00;0.40;;;;;;;;;;4959441;28;20058;-77
2021/05/24 07:30:05;;;;;;;0.90;0.40;;;;;;;;;;4948645;28;20518;-77
2021/05/24 07:32:30;;;;;;;0.93;0.40;;;;;;;;;;4962844;28;20482;-76
2021/05/24 07:34:55;;;;;;;0.50;0.40;;;;;;;;;;4960054;28;20745;-76
2021/05/24 07:37:21;;;;;;;1.03;0.50;;;;;;;;;;4943265;28;20070;-77
2021/05/24 07:39:46;;;;;;;0.97;0.50;;;;;;;;;;4959241;28;20027;-77
2021/05/24 07:42:11;;;;;;;0.80;0.40;;;;;;;;;;4959110;28;20525;-76
2021/05/24 07:44:37;;;;;;;1.40;0.50;;;;;;;;;;4967497;28;20386;-77
2021/05/24 07:47:02;;;;;;;1.10;0.50;;;;;;;;;;4958312;28;20033;-77
2021/05/24 07:49:28;;;;;;;0.50;0.40;;;;;;;;;;4959280;28;20486;-77
2021/05/24 07:51:53;;;;;;;0.80;0.47;;;;;;;;;;4959195;28;20390;-77
2021/05/24 07:54:19;;;;;;;0.70;0.40;;;;;;;;;;4929493;28;20138;-76
2021/05/24 07:56:44;;;;;;;0.57;0.30;;;;;;;;;;4976277;28;20029;-77
2021/05/24 07:59:10;;;;;;;0.47;0.30;;;;;;;;;;4959192;28;20114;-77
2021/05/24 08:01:36;;;;;;;0.85;0.40;;;;;;;;;;4943077;28;20030;-76
2021/05/24 08:04:01;;;;;;;0.73;0.40;;;;;;;;;;4958731;28;20031;-76
2021/05/24 08:06:26;;;;;;;0.80;0.40;;;;;;;;;;4977729;28;20483;-76
2021/05/24 08:08:51;;;;;;;0.80;0.40;;;;;;;;;;4978211;28;20034;-76
2021/05/24 08:11:17;;;;;;;1.03;0.43;;;;;;;;;;4956230;28;20130;-76
2021/05/24 08:13:42;;;;;;;0.50;0.40;;;;;;;;;;4943031;28;20027;-76
2021/05/24 08:16:08;;;;;;;0.67;0.40;;;;;;;;;;4974875;28;20045;-76
2021/05/24 08:18:33;;;;;;;1.30;0.50;;;;;;;;;;4977870;28;20113;-76
2021/05/24 08:20:59;;;;;;;0.70;0.37;;;;;;;;;;4961451;28;20516;-76
2021/05/24 08:23:24;;;;;;;1.17;0.40;;;;;;;;;;4961399;28;20446;-74
2021/05/24 08:25:49;;;;;;;0.50;0.40;;;;;;;;;;4976117;28;20449;-76
2021/05/24 08:28:16;;;;;;;0.63;0.33;;;;;;;;;;4966196;28;20054;-76
2021/05/24 08:30:42;;;;;;;0.95;0.30;;;;;;;;;;4973356;28;20425;-76
2021/05/24 08:33:08;;;;;;;0.60;0.40;;;;;;;;;;4945542;28;20034;-76
2021/05/24 08:35:33;;;;;;;0.60;0.33;;;;;;;;;;4940504;28;20030;-76
2021/05/24 08:37:58;;;;;;;0.67;0.37;;;;;;;;;;4942028;28;20465;-76
2021/05/24 08:40:24;;;;;;;0.70;0.47;;;;;;;;;;4942230;28;20085;-76
2021/05/24 08:42:50;;;;;;;0.60;0.30;;;;;;;;;;4941896;28;20055;-76
2021/05/24 08:45:15;;;;;;;0.50;0.32;;;;;;;;;;4958528;28;20037;-76
2021/05/24 08:47:41;;;;;;;0.77;0.33;;;;;;;;;;4926171;28;20557;-76
2021/05/24 08:50:07;;;;;;;0.82;0.40;;;;;;;;;;4952838;28;20031;-76
2021/05/24 08:52:32;;;;;;;0.97;0.40;;;;;;;;;;4941804;28;20038;-77
2021/05/24 08:54:57;;;;;;;0.43;0.40;;;;;;;;;;4982939;28;20117;-75
2021/05/24 08:57:23;;;;;;;1.10;0.40;;;;;;;;;;4977371;28;20065;-76
2021/05/24 08:59:48;;;;;;;1.63;0.40;;;;;;;;;;4960202;28;20023;-75
2021/05/24 09:02:14;;;;;;;0.67;0.30;;;;;;;;;;4963543;28;20066;-75
2021/05/24 09:04:47;;;;;;;0.70;0.40;;;;;;;;;;4946277;28;20026;-75
2021/05/24 09:07:13;;;;;;;1.08;0.50;;;;;;;;;;4976980;28;20036;-75
2021/05/24 09:09:38;;;;;;;0.87;0.37;;;;;;;;;;4977271;28;20030;-76
2021/05/24 09:12:16;;;;;;;0.40;0.30;;;;;;;;;;4945631;28;20034;-76
2021/05/24 09:14:41;;;;;;;1.00;0.40;;;;;;;;;;4946795;28;20038;-75
2021/05/24 09:17:07;;;;;;;0.60;0.30;;;;;;;;;;4976958;28;20128;-75
2021/05/24 09:19:36;;;;;;;0.77;0.40;;;;;;;;;;4976761;28;20041;-76
2021/05/24 09:22:03;;;;;;;1.13;0.50;;;;;;;;;;4971838;28;20030;-76
2021/05/24 09:24:29;;;;;;;0.60;0.30;;;;;;;;;;4957777;28;20123;-76
2021/05/24 09:26:57;;;;;;;1.85;0.75;;;;;;;;;;4974632;28;20157;-76
2021/05/24 09:29:23;;;;;;;0.77;0.30;;;;;;;;;;4957583;28;20054;-76
2021/05/24 09:31:53;;;;;;;0.77;0.35;;;;;;;;;;4953510;28;20080;-75
2021/05/24 09:34:20;;;;;;;0.40;0.30;;;;;;;;;;4944479;28;20030;-76
2021/05/24 09:36:45;;;;;;;1.08;0.40;;;;;;;;;;4960705;28;20030;-75
2021/05/24 09:39:11;;;;;;;0.40;0.20;;;;;;;;;;4944425;28;20520;-76
2021/05/24 09:41:44;;;;;;;0.60;0.40;;;;;;;;;;4994007;28;20147;-76
2021/05/24 09:44:21;;;;;;;0.77;0.40;;;;;;;;;;4994258;28;20058;-75
2021/05/24 09:46:48;;;;;;;;;;;;;;;;;;4977040;28;20029;-76
2021/05/24 09:49:13;;;;;;;0.47;0.30;;;;;;;;;;4975375;28;19910;-76
2021/05/24 09:51:38;;;;;;;0.70;0.40;;;;;;;;;;4944982;28;20109;-76
2021/05/24 09:54:11;;;;;;;0.60;0.40;;;;;;;;;;4959578;28;20069;-75
2021/05/24 09:56:42;;;;;;;2.58;0.30;;;;;;;;;;4936961;28;20507;-76
2021/05/24 09:59:09;;;;;;;0.38;0.30;;;;;;;;;;4941124;28;20091;-76
2021/05/24 10:01:46;;;;;;;;;;;;;;;;;;4941439;28;20483;-75
2021/05/24 10:04:20;;;;;;;0.60;0.30;;;;;;;;;;4965103;28;20004;-75
2021/05/24 10:06:45;;;;;;;0.70;0.35;;;;;;;;;;4952121;28;20027;-75
2021/05/24 10:09:12;;;;;;;0.80;0.30;;;;;;;;;;4956952;28;20054;-76
2021/05/24 10:11:45;;;;;;;0.57;0.32;;;;;;;;;;4974579;28;20042;-75
2021/05/24 10:14:11;;;;;;;2.22;0.40;;;;;;;;;;4980791;28;20022;-75
2021/05/24 10:16:43;;;;;;;1.23;0.55;;;;;;;;;;4973041;28;20111;-75
2021/05/24 10:19:11;;;;;;;0.73;0.30;;;;;;;;;;4978024;28;20042;-75
2021/05/24 10:21:36;;;;;;;0.57;0.32;;;;;;;;;;4961044;28;20394;-76
2021/05/24 10:24:01;;;;;;;0.30;0.30;;;;;;;;;;4960597;28;20022;-76
2021/05/24 10:26:27;;;;;;;0.40;0.30;;;;;;;;;;4973299;28;20482;-75
2021/05/24 10:28:53;;;;;;;1.90;0.57;;;;;;;;;;4960643;28;20034;-76
2021/05/24 10:31:23;;;;;;;0.50;0.30;;;;;;;;;;4965992;28;20403;-75
2021/05/24 10:33:49;;;;;;;0.80;0.40;;;;;;;;;;4947601;28;20058;-76
2021/05/24 10:36:22;;;;;;;0.77;0.33;;;;;;;;;;4959647;28;20161;-75
2021/05/24 10:39:04;;;;;;;0.40;0.30;;;;;;;;;;4945226;28;20117;-75
2021/05/24 10:41:55;;;;;;;1.20;0.30;;;;;;;;;;4960314;28;20022;-75
2021/05/24 10:44:21;;;;;;;0.30;0.30;;;;;;;;;;4971782;28;20121;-75
2021/05/24 10:46:47;;;;;;;1.38;0.32;;;;;;;;;;4956305;28;20113;-75
2021/05/24 10:49:12;;;;;;;0.90;0.40;;;;;;;;;;4960711;28;20585;-75
2021/05/24 10:51:46;;;;;;;0.30;0.30;;;;;;;;;;4961488;28;20121;-75
2021/05/24 10:54:36;;;;;;;0.77;0.38;;;;;;;;;;4994064;28;20048;-75
2021/05/24 10:57:02;;;;;;;1.15;0.32;;;;;;;;;;4951826;28;20046;-75
2021/05/24 10:59:39;;;;;;;0.30;0.20;;;;;;;;;;4977195;28;20026;-75
2021/05/24 11:02:11;;;;;;;0.40;0.30;;;;;;;;;;4959674;28;20035;-75
2021/05/24 11:04:54;;;;;;;0.47;0.30;;;;;;;;;;4946284;28;20137;-75
2021/05/24 11:07:43;;;;;;;1.08;0.30;;;;;;;;;;4945049;28;20027;-76
2021/05/24 11:10:11;;;;;;;0.77;0.30;;;;;;;;;;4943696;28;20031;-76
2021/05/24 11:15:13;;;;;;;0.88;0.30;;;;;;;;;;4976243;28;20062;-76
2021/05/24 11:17:57;;;;;;;0.80;0.38;;;;;;;;;;4975682;28;20487;-76
2021/05/24 11:20:45;;;;;;;0.30;0.30;;;;;;;;;;4980766;28;20045;-76
2021/05/24 11:26:20;;;;;;;0.63;0.30;;;;;;;;;;4985858;28;19959;-76
2021/05/24 11:28:53;;;;;;;0.45;0.30;;;;;;;;;;4977897;28;20027;-76
2021/05/24 11:31:26;;;;;;;0.68;0.30;;;;;;;;;;4976918;28;20047;-76
2021/05/24 11:33:53;;;;;;;0.52;0.30;;;;;;;;;;4974067;28;20018;-76
2021/05/24 11:36:43;;;;;;;0.55;0.40;;;;;;;;;;4952211;28;20102;-76
2021/05/24 11:39:12;;;;;;;0.55;0.30;;;;;;;;;;4967255;28;20389;-76
2021/05/24 11:41:45;;;;;;;0.73;0.43;;;;;;;;;;4996053;28;20113;-76
2021/05/24 11:44:10;;;;;;;1.58;0.40;;;;;;;;;;4966435;28;20478;-76
2021/05/24 11:46:48;;;;;;;0.93;0.40;;;;;;;;;;4959496;28;20097;-76
2021/05/24 11:49:14;;;;;;;0.45;0.30;;;;;;;;;;4959760;28;20023;-76
2021/05/24 11:51:40;;;;;;;0.57;0.30;;;;;;;;;;4960409;28;20034;-76
2021/05/24 11:54:06;;;;;;;0.30;0.30;;;;;;;;;;4978900;28;20392;-76
2021/05/24 11:56:42;;;;;;;0.40;0.30;;;;;;;;;;4996062;28;20018;-76
2021/05/24 11:59:08;;;;;;;0.85;0.40;;;;;;;;;;4976156;28;20076;-77
2021/05/24 12:01:34;;;;;;;0.50;0.30;;;;;;;;;;4943794;28;20026;-77
2021/05/24 12:04:10;;;;;;;0.70;0.40;;;;;;;;;;4939720;28;20081;-77
2021/05/24 12:06:40;;;;;;;0.60;0.32;;;;;;;;;;4925000;28;20027;-77
2021/05/24 12:09:06;;;;;;;0.50;0.20;;;;;;;;;;4951150;28;20049;-76
2021/05/24 12:11:35;;;;;;;0.40;0.40;;;;;;;;;;4956383;28;20022;-76
2021/05/24 12:14:11;;;;;;;0.57;0.30;;;;;;;;;;4945576;28;20069;-76
2021/05/24 12:16:36;;;;;;;1.15;0.32;;;;;;;;;;4964984;28;20130;-77
2021/05/24 12:19:02;;;;;;;0.53;0.30;;;;;;;;;;4940813;28;20101;-77
2021/05/24 12:21:31;;;;;;;0.80;0.32;;;;;;;;;;4941336;28;20088;-77
2021/05/24 12:24:03;;;;;;;0.40;0.30;;;;;;;;;;4991325;28;20102;-76
2021/05/24 12:26:29;;;;;;;1.02;0.40;;;;;;;;;;4924908;28;20023;-77
2021/05/24 12:28:55;;;;;;;1.80;0.33;;;;;;;;;;4951949;28;20152;-77
2021/05/24 12:31:21;;;;;;;0.60;0.30;;;;;;;;;;4959685;28;20077;-77
2021/05/24 12:33:46;;;;;;;1.43;0.30;;;;;;;;;;4958195;28;20113;-77
2021/05/24 12:36:14;;;;;;;0.53;0.30;;;;;;;;;;4940306;28;20470;-76
2021/05/24 12:38:51;;;;;;;0.30;0.22;;;;;;;;;;4942217;28;20137;-78
2021/05/24 12:41:18;;;;;;;0.50;0.30;;;;;;;;;;4958307;28;20031;-78
2021/05/24 12:43:48;;;;;;;0.30;0.30;;;;;;;;;;4957714;28;20041;-77
2021/05/24 12:46:14;;;;;;;0.85;0.40;;;;;;;;;;4975538;28;20122;-77
2021/05/24 12:48:40;;;;;;;0.73;0.30;;;;;;;;;;4975257;28;20038;-78
2021/05/24 12:51:13;;;;;;;1.10;0.30;;;;;;;;;;4952259;28;20049;-76
2021/05/24 12:53:38;;;;;;;0.73;0.40;;;;;;;;;;4973905;28;20037;-77
2021/05/24 12:56:08;;;;;;;2.30;0.30;;;;;;;;;;4991504;28;20386;-77
2021/05/24 12:58:37;;;;;;;0.88;0.35;;;;;;;;;;4961222;28;20109;-76
2021/05/24 13:01:02;;;;;;;1.23;0.20;;;;;;;;;;4976738;28;20049;-76
2021/05/24 13:03:49;;;;;;;0.73;0.30;;;;;;;;;;4964259;28;20110;-76
2021/05/24 13:06:14;;;;;;;0.65;0.30;;;;;;;;;;4942188;28;20042;-76
2021/05/24 13:08:53;;;;;;;0.70;0.40;;;;;;;;;;4925817;28;20023;-77
2021/05/24 13:11:19;;;;;;;0.65;0.30;;;;;;;;;;4927161;28;20023;-76
2021/05/24 13:14:01;;;;;;;2.17;0.30;;;;;;;;;;4976717;28;20030;-77
2021/05/24 13:16:31;;;;;;;0.77;0.30;;;;;;;;;;4960613;28;20022;-76
2021/05/24 13:25:09;;;;;;;0.73;0.40;;;;;;;;;;4955973;28;20033;-77
2021/05/24 13:27:56;;;;;;;0.52;0.30;;;;;;;;;;4953590;28;20401;-76
2021/05/24 13:30:27;;;;;;;0.80;0.40;;;;;;;;;;4959465;28;20398;-76
2021/05/24 13:32:52;;;;;;;0.50;0.30;;;;;;;;;;4957409;28;20030;-76
2021/05/24 13:35:24;;;;;;;1.30;0.30;;;;;;;;;;4957304;28;20478;-76
2021/05/24 13:37:49;;;;;;;0.50;0.20;;;;;;;;;;4940395;28;20026;-76
2021/05/24 13:40:16;;;;;;;0.53;0.30;;;;;;;;;;4957329;28;20019;-76
2021/05/24 13:42:43;;;;;;;1.58;0.32;;;;;;;;;;4941174;28;20027;-76
2021/05/24 13:45:09;;;;;;;0.65;0.40;;;;;;;;;;4973662;28;20035;-77
2021/05/24 13:47:34;;;;;;;1.95;0.38;;;;;;;;;;4958149;28;20037;-76
2021/05/24 13:50:00;;;;;;;0.80;0.30;;;;;;;;;;4957205;28;20446;-76
2021/05/24 13:52:25;;;;;;;0.30;0.20;;;;;;;;;;4956989;28;20054;-76
2021/05/24 13:54:50;;;;;;;1.63;0.20;;;;;;;;;;4974661;28;20054;-76
2021/05/24 13:57:16;;;;;;;0.63;0.30;;;;;;;;;;4957256;28;20070;-77
2021/05/24 13:59:41;;;;;;;0.67;0.23;;;;;;;;;;4970656;28;20061;-76
2021/05/24 14:02:06;;;;;;;0.83;0.40;;;;;;;;;;4960200;28;20042;-76
2021/05/24 14:04:33;;;;;;;1.07;0.37;;;;;;;;;;4975665;28;20543;-77
2021/05/24 14:06:59;;;;;;;1.90;0.38;;;;;;;;;;4993433;28;20026;-76
2021/05/24 14:09:25;;;;;;;1.08;0.20;;;;;;;;;;4960206;28;20072;-76
2021/05/24 14:11:50;;;;;;;0.33;0.30;;;;;;;;;;4943768;28;20442;-76
2021/05/24 14:14:15;;;;;;;0.60;0.20;;;;;;;;;;4975649;28;20081;-76
2021/05/24 14:16:41;;;;;;;0.90;0.40;;;;;;;;;;4976192;28;20050;-76
2021/05/24 14:19:06;;;;;;;0.63;0.30;;;;;;;;;;4957068;28;20039;-76
2021/05/24 14:21:33;;;;;;;0.33;0.20;;;;;;;;;;4940943;28;20050;-76
2021/05/24 14:23:59;;;;;;;0.60;0.30;;;;;;;;;;4956966;28;20039;-76
2021/05/24 14:26:24;;;;;;;1.73;0.23;;;;;;;;;;4950565;28;20019;-76
2021/05/24 14:28:50;;;;;;;0.50;0.20;;;;;;;;;;4951767;28;20037;-76
2021/05/24 14:31:15;;;;;;;0.77;0.30;;;;;;;;;;4940701;28;20109;-76
2021/05/24 14:33:40;;;;;;;0.57;0.30;;;;;;;;;;4944086;28;20497;-76
2021/05/24 14:36:06;;;;;;;0.70;0.30;;;;;;;;;;4956664;28;20026;-76
2021/05/24 14:38:31;;;;;;;0.40;0.30;;;;;;;;;;4948770;28;20061;-76
2021/05/24 14:40:57;;;;;;;0.90;0.23;;;;;;;;;;4993286;28;20026;-76
2021/05/24 14:43:23;;;;;;;1.80;0.40;;;;;;;;;;4975579;28;20026;-76
2021/05/24 14:45:49;;;;;;;0.37;0.27;;;;;;;;;;4975978;28;20073;-76
2021/05/24 14:48:14;;;;;;;0.60;0.20;;;;;;;;;;4959771;28;20109;-76
2021/05/24 14:50:50;;;;;;;0.77;0.43;;;;;;;;;;4958930;28;20026;-77
2021/05/24 14:53:34;;;;;;;0.52;0.30;;;;;;;;;;4983651;28;20038;-76
2021/05/24 14:56:00;;;;;;;1.27;0.30;;;;;;;;;;4955799;28;20037;-76